Time;durP1;ratioP1;P1;durP2;ratioP2;P2;SDS_P1;SDS_P2;PMS_P1;PMS_P2;Temp;Humidity;BMP_temperature;BMP_pressure;BME280_temperature;BME280_humidity;BME280_pressure;Samples;Min_cycle;Max_cycle;Signal;HPM_P1;HPM_P2
2021/05/22 00:01:37;;;;;;;8.60;5.82;;;;;;;;;;4931082;29;20380;-58
2021/05/22 00:04:04;;;;;;;9.93;6.65;;;;;;;;;;4925792;29;20067;-57
2021/05/22 00:06:30;;;;;;;10.73;5.80;;;;;;;;;;4922717;29;20181;-57
2021/05/22 00:08:56;;;;;;;14.20;6.55;;;;;;;;;;4927554;29;20051;-60
2021/05/22 00:11:23;;;;;;;7.22;5.75;;;;;;;;;;4927090;29;20079;-59
2021/05/22 00:13:50;;;;;;;8.80;5.70;;;;;;;;;;4931083;29;20503;-56
2021/05/22 00:16:17;;;;;;;8.43;5.40;;;;;;;;;;4925974;29;20051;-58
2021/05/22 00:18:43;;;;;;;8.25;5.95;;;;;;;;;;4929214;29;20043;-57
2021/05/22 00:21:10;;;;;;;10.10;6.55;;;;;;;;;;4927849;29;20073;-58
2021/05/22 00:23:37;;;;;;;11.07;5.93;;;;;;;;;;4929135;29;20043;-58
2021/05/22 00:26:04;;;;;;;8.52;5.25;;;;;;;;;;4928868;29;20301;-58
2021/05/22 00:28:31;;;;;;;8.20;5.30;;;;;;;;;;4926277;29;20119;-56
2021/05/22 00:30:58;;;;;;;10.23;5.93;;;;;;;;;;4928011;29;20046;-58
2021/05/22 00:33:26;;;;;;;10.10;5.68;;;;;;;;;;4926573;29;20297;-57
2021/05/22 00:35:54;;;;;;;8.02;6.00;;;;;;;;;;4923809;29;20204;-58
2021/05/22 00:38:21;;;;;;;11.90;6.20;;;;;;;;;;4923682;29;20062;-57
2021/05/22 00:40:48;;;;;;;;;;;;;;;;;;4924167;29;20484;-58
2021/05/22 00:43:15;;;;;;;14.93;5.80;;;;;;;;;;4924979;29;20400;-58
2021/05/22 00:45:43;;;;;;;15.17;5.90;;;;;;;;;;4931709;29;20542;-59
2021/05/22 00:48:11;;;;;;;13.10;5.53;;;;;;;;;;4927964;29;20127;-57
2021/05/22 00:50:39;;;;;;;10.35;5.65;;;;;;;;;;4930020;29;20040;-59
2021/05/22 00:53:06;;;;;;;12.18;6.10;;;;;;;;;;4926553;29;20134;-58
2021/05/22 00:55:34;;;;;;;13.10;5.78;;;;;;;;;;4922149;29;20067;-58
2021/05/22 00:58:02;;;;;;;14.43;6.88;;;;;;;;;;4926851;29;20074;-56
2021/05/22 01:00:36;;;;;;;13.00;6.32;;;;;;;;;;4927766;29;20118;-58
2021/05/22 01:03:04;;;;;;;17.70;6.28;;;;;;;;;;4926969;29;20079;-57
2021/05/22 01:05:31;;;;;;;16.30;7.38;;;;;;;;;;4921781;29;20042;-59
2021/05/22 01:07:58;;;;;;;10.18;5.68;;;;;;;;;;4926897;29;20122;-58
2021/05/22 01:10:26;;;;;;;21.10;6.85;;;;;;;;;;4923827;29;20447;-57
2021/05/22 01:12:54;;;;;;;15.20;5.90;;;;;;;;;;4927978;29;20040;-58
2021/05/22 01:15:22;;;;;;;19.65;6.70;;;;;;;;;;4924963;29;20054;-58
2021/05/22 01:17:51;;;;;;;15.68;6.65;;;;;;;;;;4929654;29;20047;-58
2021/05/22 01:20:44;;;;;;;12.38;6.78;;;;;;;;;;4920685;29;20520;-58
2021/05/22 01:23:20;;;;;;;14.50;6.30;;;;;;;;;;4919182;29;20048;-57
2021/05/22 01:25:50;;;;;;;15.55;7.30;;;;;;;;;;4930216;29;20044;-59
2021/05/22 01:28:18;;;;;;;15.02;6.05;;;;;;;;;;4927351;29;20051;-59
2021/05/22 01:30:45;;;;;;;17.50;6.70;;;;;;;;;;4924485;29;20044;-58
2021/05/22 01:33:12;;;;;;;;;;;;;;;;;;4923083;29;20052;-56
2021/05/22 01:35:40;;;;;;;20.17;7.28;;;;;;;;;;4927135;29;20027;-56
2021/05/22 01:38:07;;;;;;;18.85;6.63;;;;;;;;;;4923062;29;20040;-58
2021/05/22 01:40:35;;;;;;;18.85;7.10;;;;;;;;;;4925330;29;20567;-57
2021/05/22 01:43:03;;;;;;;29.92;8.00;;;;;;;;;;4922914;29;20663;-57
2021/05/22 01:45:31;;;;;;;17.77;7.45;;;;;;;;;;4921690;29;20062;-58
2021/05/22 01:47:59;;;;;;;23.83;7.80;;;;;;;;;;4922753;29;20035;-58
2021/05/22 01:50:27;;;;;;;24.50;8.15;;;;;;;;;;4923901;29;20047;-58
2021/05/22 01:52:54;;;;;;;23.50;7.55;;;;;;;;;;4926415;29;20042;-59
2021/05/22 01:55:22;;;;;;;18.35;7.72;;;;;;;;;;4921571;29;20416;-58
2021/05/22 01:57:48;;;;;;;;;;;;;;;;;;4923441;29;20515;-58
2021/05/22 02:00:16;;;;;;;28.10;9.18;;;;;;;;;;4926013;29;19930;-58
2021/05/22 02:03:06;;;;;;;20.88;8.68;;;;;;;;;;4925297;29;20059;-59
2021/05/22 02:05:34;;;;;;;19.63;7.03;;;;;;;;;;4919563;29;20039;-57
2021/05/22 02:08:01;;;;;;;21.83;6.85;;;;;;;;;;4926734;29;20045;-56
2021/05/22 02:10:29;;;;;;;21.38;7.28;;;;;;;;;;4928672;29;20056;-58
2021/05/22 02:12:58;;;;;;;19.35;6.40;;;;;;;;;;4924742;29;20040;-57
2021/05/22 02:15:24;;;;;;;;;;;;;;;;;;4926826;29;20050;-58
2021/05/22 02:17:52;;;;;;;25.70;7.72;;;;;;;;;;4925313;29;19923;-58
2021/05/22 02:20:20;;;;;;;19.05;6.32;;;;;;;;;;4925907;29;20059;-57
2021/05/22 02:22:46;;;;;;;;;;;;;;;;;;4928584;29;20038;-58
2021/05/22 02:25:13;;;;;;;16.52;5.47;;;;;;;;;;4925624;29;19954;-58
2021/05/22 02:27:40;;;;;;;17.90;6.28;;;;;;;;;;4923942;29;20058;-57
2021/05/22 02:30:17;;;;;;;15.90;4.88;;;;;;;;;;4927132;29;20052;-59
2021/05/22 02:32:45;;;;;;;25.90;6.70;;;;;;;;;;4923251;29;20103;-58
2021/05/22 02:35:12;;;;;;;28.33;6.00;;;;;;;;;;4925840;29;20143;-58
2021/05/22 02:37:39;;;;;;;11.77;6.03;;;;;;;;;;4910836;29;20415;-59
2021/05/22 02:40:14;;;;;;;23.48;6.40;;;;;;;;;;4924512;29;20047;-58
2021/05/22 02:42:47;;;;;;;17.65;5.95;;;;;;;;;;4921314;29;20040;-60
2021/05/22 02:45:14;;;;;;;19.35;5.88;;;;;;;;;;4925607;29;20051;-58
2021/05/22 02:47:42;;;;;;;19.63;6.93;;;;;;;;;;4923121;29;20131;-58
2021/05/22 02:50:09;;;;;;;25.75;5.78;;;;;;;;;;4921437;29;20100;-59
2021/05/22 02:52:39;;;;;;;27.83;6.75;;;;;;;;;;4927750;29;20082;-57
2021/05/22 02:55:07;;;;;;;25.08;6.70;;;;;;;;;;4925259;29;20131;-58
2021/05/22 02:57:34;;;;;;;19.75;5.50;;;;;;;;;;4923049;29;20051;-58
2021/05/22 03:00:01;;;;;;;21.40;4.72;;;;;;;;;;4922767;29;20040;-58
2021/05/22 03:02:28;;;;;;;24.23;4.47;;;;;;;;;;4922155;29;20119;-57
2021/05/22 03:04:56;;;;;;;21.98;3.97;;;;;;;;;;4923478;29;20508;-59
2021/05/22 03:07:24;;;;;;;21.63;4.75;;;;;;;;;;4923304;29;20060;-58
2021/05/22 03:09:50;;;;;;;18.60;3.80;;;;;;;;;;4924863;29;20495;-59
2021/05/22 03:12:19;;;;;;;14.83;3.93;;;;;;;;;;4926420;29;20118;-58
2021/05/22 03:14:46;;;;;;;23.48;4.05;;;;;;;;;;4928049;29;20111;-58
2021/05/22 03:17:12;;;;;;;11.80;3.50;;;;;;;;;;4922605;29;20051;-58
2021/05/22 03:19:39;;;;;;;17.95;3.22;;;;;;;;;;4909268;29;20087;-59
2021/05/22 03:22:06;;;;;;;18.38;3.92;;;;;;;;;;4920756;29;20491;-58
2021/05/22 03:24:32;;;;;;;14.47;3.70;;;;;;;;;;4921177;29;20043;-59
2021/05/22 03:26:59;;;;;;;15.75;3.63;;;;;;;;;;4919689;29;20048;-60
2021/05/22 03:29:26;;;;;;;16.15;4.00;;;;;;;;;;4925625;29;20146;-58
2021/05/22 03:31:53;;;;;;;21.93;4.20;;;;;;;;;;4922321;29;20055;-59
2021/05/22 03:34:19;;;;;;;12.00;3.60;;;;;;;;;;4927137;29;20490;-59
2021/05/22 03:36:47;;;;;;;17.00;3.55;;;;;;;;;;4920826;29;20083;-59
2021/05/22 03:39:13;;;;;;;26.10;4.37;;;;;;;;;;4919827;29;20035;-58
2021/05/22 03:41:40;;;;;;;15.10;4.13;;;;;;;;;;4922581;29;20043;-59
2021/05/22 03:44:08;;;;;;;;;;;;;;;;;;4925407;29;20378;-59
2021/05/22 03:46:34;;;;;;;14.32;3.67;;;;;;;;;;4920084;29;19922;-59
2021/05/22 03:49:02;;;;;;;11.57;3.60;;;;;;;;;;4925592;29;20042;-57
2021/05/22 03:51:29;;;;;;;14.48;4.35;;;;;;;;;;4906451;29;20047;-59
2021/05/22 03:53:56;;;;;;;15.65;4.00;;;;;;;;;;4924065;29;20039;-59
2021/05/22 03:56:23;;;;;;;15.77;3.57;;;;;;;;;;4920759;29;20063;-59
2021/05/22 03:58:52;;;;;;;18.35;3.72;;;;;;;;;;4922309;29;20374;-59
2021/05/22 04:01:19;;;;;;;16.40;4.35;;;;;;;;;;4923229;29;20040;-59
2021/05/22 04:03:46;;;;;;;21.98;3.85;;;;;;;;;;4924273;29;20043;-59
2021/05/22 04:06:13;;;;;;;13.15;4.15;;;;;;;;;;4922922;29;20087;-59
2021/05/22 04:08:40;;;;;;;16.38;3.55;;;;;;;;;;4908842;29;20050;-59
2021/05/22 04:11:06;;;;;;;13.82;3.20;;;;;;;;;;4924504;29;20399;-59
2021/05/22 04:13:34;;;;;;;10.82;3.42;;;;;;;;;;4929367;29;20043;-60
2021/05/22 04:16:01;;;;;;;14.43;3.40;;;;;;;;;;4927454;29;20040;-59
2021/05/22 04:18:28;;;;;;;13.40;3.78;;;;;;;;;;4930084;29;20135;-59
2021/05/22 04:20:54;;;;;;;9.95;3.55;;;;;;;;;;4926924;29;20063;-60
2021/05/22 04:23:21;;;;;;;14.13;3.50;;;;;;;;;;4927142;29;20048;-60
2021/05/22 04:25:48;;;;;;;8.70;2.83;;;;;;;;;;4921755;29;20542;-60
2021/05/22 04:28:15;;;;;;;11.27;3.25;;;;;;;;;;4921429;29;20135;-60
2021/05/22 04:30:42;;;;;;;9.07;2.55;;;;;;;;;;4928330;29;20043;-60
2021/05/22 04:33:08;;;;;;;10.60;2.53;;;;;;;;;;4928537;29;20087;-60
2021/05/22 04:35:35;;;;;;;7.33;3.13;;;;;;;;;;4927231;29;20708;-60
2021/05/22 04:38:02;;;;;;;10.05;2.92;;;;;;;;;;4925369;29;20182;-60
2021/05/22 04:40:29;;;;;;;7.10;2.50;;;;;;;;;;4925734;29;20078;-60
2021/05/22 04:42:56;;;;;;;12.60;3.27;;;;;;;;;;4921838;29;20119;-60
2021/05/22 04:45:22;;;;;;;7.55;2.85;;;;;;;;;;4924808;29;20043;-60
2021/05/22 04:47:49;;;;;;;15.25;3.58;;;;;;;;;;4925979;29;20091;-60
2021/05/22 04:50:17;;;;;;;;;;;;;;;;;;4923637;29;20194;-60
2021/05/22 04:52:44;;;;;;;7.55;2.53;;;;;;;;;;4924638;29;20322;-60
2021/05/22 04:55:10;;;;;;;8.82;3.10;;;;;;;;;;4929659;29;20044;-60
2021/05/22 04:57:38;;;;;;;7.57;3.00;;;;;;;;;;4926412;29;20438;-60
2021/05/22 05:00:07;;;;;;;8.93;3.20;;;;;;;;;;4927743;29;20175;-60
2021/05/22 05:02:34;;;;;;;10.48;3.10;;;;;;;;;;4910985;29;20047;-60
2021/05/22 05:05:02;;;;;;;10.85;3.10;;;;;;;;;;4930170;29;20048;-60
2021/05/22 05:07:29;;;;;;;12.52;3.05;;;;;;;;;;4928021;29;20063;-60
2021/05/22 05:09:56;;;;;;;13.63;3.22;;;;;;;;;;4928435;29;20468;-60
2021/05/22 05:12:23;;;;;;;11.02;2.92;;;;;;;;;;4927510;29;20062;-60
2021/05/22 05:14:51;;;;;;;13.98;3.28;;;;;;;;;;4930868;29;20488;-60
2021/05/22 05:17:17;;;;;;;6.93;2.67;;;;;;;;;;4927508;29;20448;-60
2021/05/22 05:19:44;;;;;;;9.45;3.28;;;;;;;;;;4923683;29;20035;-60
2021/05/22 05:22:11;;;;;;;17.75;3.42;;;;;;;;;;4927429;29;20039;-60
2021/05/22 05:24:37;;;;;;;12.85;3.22;;;;;;;;;;4922285;29;20661;-60
2021/05/22 05:27:06;;;;;;;7.75;2.75;;;;;;;;;;4926815;29;20427;-60
2021/05/22 05:29:34;;;;;;;16.35;3.25;;;;;;;;;;4927269;29;20044;-60
2021/05/22 05:32:00;;;;;;;;;;;;;;;;;;4930092;29;20139;-59
2021/05/22 05:34:27;;;;;;;15.88;3.13;;;;;;;;;;4931481;29;20021;-60
2021/05/22 05:36:54;;;;;;;19.13;2.83;;;;;;;;;;4924933;29;20046;-59
2021/05/22 05:39:21;;;;;;;16.27;3.03;;;;;;;;;;4925508;29;20066;-59
2021/05/22 05:41:48;;;;;;;15.00;3.28;;;;;;;;;;4931751;29;20344;-59
2021/05/22 05:44:15;;;;;;;10.57;2.78;;;;;;;;;;4926706;29;20044;-59
2021/05/22 05:46:41;;;;;;;17.83;4.10;;;;;;;;;;4923051;29;20046;-59
2021/05/22 05:49:08;;;;;;;13.77;3.07;;;;;;;;;;4928311;29;20047;-59
2021/05/22 05:51:35;;;;;;;14.98;3.80;;;;;;;;;;4925137;29;20336;-60
2021/05/22 05:54:01;;;;;;;15.50;3.47;;;;;;;;;;4931547;29;20044;-60
2021/05/22 05:56:28;;;;;;;13.73;3.17;;;;;;;;;;4926232;29;20051;-60
2021/05/22 05:58:55;;;;;;;16.27;3.00;;;;;;;;;;4927779;29;20307;-59
2021/05/22 06:01:22;;;;;;;13.60;3.45;;;;;;;;;;4922750;29;20051;-59
2021/05/22 06:03:49;;;;;;;15.35;3.30;;;;;;;;;;4926250;29;20539;-59
2021/05/22 06:06:16;;;;;;;18.38;4.03;;;;;;;;;;4922947;29;20059;-60
2021/05/22 06:08:42;;;;;;;5.60;2.63;;;;;;;;;;4924522;29;20044;-59
2021/05/22 06:11:12;;;;;;;8.43;2.92;;;;;;;;;;4926209;29;20679;-59
2021/05/22 06:13:39;;;;;;;11.25;2.90;;;;;;;;;;4921083;29;20040;-60
2021/05/22 06:18:33;;;;;;;9.57;2.58;;;;;;;;;;4920439;29;20075;-59
2021/05/22 06:21:00;;;;;;;8.68;2.45;;;;;;;;;;4922377;29;20058;-59
2021/05/22 06:23:27;;;;;;;10.77;2.70;;;;;;;;;;4923271;29;20063;-59
2021/05/22 06:25:56;;;;;;;8.52;2.67;;;;;;;;;;4927522;29;20132;-59
2021/05/22 06:28:23;;;;;;;11.13;3.15;;;;;;;;;;4924712;29;20043;-59
2021/05/22 06:30:49;;;;;;;7.03;2.23;;;;;;;;;;4925745;29;20138;-60
2021/05/22 06:33:16;;;;;;;11.00;2.60;;;;;;;;;;4923991;29;20052;-60
2021/05/22 06:35:43;;;;;;;10.38;2.20;;;;;;;;;;4911449;29;20385;-59
2021/05/22 06:38:09;;;;;;;10.38;2.63;;;;;;;;;;4926010;29;20043;-60
2021/05/22 06:40:36;;;;;;;11.23;2.60;;;;;;;;;;4926222;29;20044;-59
2021/05/22 06:43:03;;;;;;;4.80;2.30;;;;;;;;;;4927867;29;20035;-60
2021/05/22 06:45:39;;;;;;;10.23;2.70;;;;;;;;;;4923946;29;20318;-59
2021/05/22 06:48:09;;;;;;;13.38;2.92;;;;;;;;;;4922293;29;20304;-59
2021/05/22 06:50:36;;;;;;;13.75;2.92;;;;;;;;;;4923506;29;20044;-60
2021/05/22 06:53:04;;;;;;;12.80;2.63;;;;;;;;;;4923050;29;20048;-59
2021/05/22 06:55:30;;;;;;;;;;;;;;;;;;4921354;29;20127;-59
2021/05/22 06:58:01;;;;;;;12.63;2.90;;;;;;;;;;4921708;29;20314;-60
2021/05/22 07:00:28;;;;;;;15.55;2.85;;;;;;;;;;4920233;29;20060;-60
2021/05/22 07:02:56;;;;;;;9.02;2.60;;;;;;;;;;4923762;29;20032;-60
2021/05/22 07:05:22;;;;;;;12.75;2.83;;;;;;;;;;4921871;29;20096;-60
2021/05/22 07:07:49;;;;;;;12.20;3.00;;;;;;;;;;4918918;29;20054;-60
2021/05/22 07:10:15;;;;;;;9.35;2.50;;;;;;;;;;4925697;29;20687;-60
2021/05/22 07:12:42;;;;;;;15.90;2.78;;;;;;;;;;4924552;29;20110;-60
2021/05/22 07:15:10;;;;;;;10.45;2.33;;;;;;;;;;4930960;29;20115;-59
2021/05/22 07:17:37;;;;;;;14.70;3.15;;;;;;;;;;4921944;29;20067;-60
2021/05/22 07:20:04;;;;;;;11.03;2.60;;;;;;;;;;4924801;29;20389;-60
2021/05/22 07:22:31;;;;;;;14.73;3.25;;;;;;;;;;4921480;29;20044;-60
2021/05/22 07:24:58;;;;;;;11.88;2.90;;;;;;;;;;4924713;29;20055;-59
2021/05/22 07:27:25;;;;;;;10.88;3.10;;;;;;;;;;4925624;29;20052;-60
2021/05/22 07:29:52;;;;;;;15.25;3.15;;;;;;;;;;4922699;29;20472;-60
2021/05/22 07:32:19;;;;;;;10.63;2.80;;;;;;;;;;4921981;29;20099;-60
2021/05/22 07:34:45;;;;;;;8.32;2.55;;;;;;;;;;4926413;29;20048;-60
2021/05/22 07:37:12;;;;;;;11.45;2.90;;;;;;;;;;4928833;29;20510;-60
2021/05/22 07:39:39;;;;;;;15.73;2.63;;;;;;;;;;4923779;29;20044;-60
2021/05/22 07:42:06;;;;;;;10.93;3.13;;;;;;;;;;4929100;29;20048;-60
2021/05/22 07:44:33;;;;;;;12.07;3.10;;;;;;;;;;4924971;29;20042;-60
2021/05/22 07:47:01;;;;;;;11.90;3.05;;;;;;;;;;4932574;29;20047;-60
2021/05/22 07:49:37;;;;;;;11.43;2.67;;;;;;;;;;4929424;29;20837;-60
2021/05/22 07:52:05;;;;;;;12.93;2.78;;;;;;;;;;4918575;29;20403;-60
2021/05/22 07:54:34;;;;;;;;;;;;;;;;;;4927912;29;20074;-59
2021/05/22 07:57:05;;;;;;;9.90;2.92;;;;;;;;;;4927599;29;19934;-60
2021/05/22 07:59:32;;;;;;;10.82;3.00;;;;;;;;;;4925959;29;20051;-60
2021/05/22 08:01:59;;;;;;;10.77;2.93;;;;;;;;;;4927137;29;20111;-59
2021/05/22 08:04:28;;;;;;;6.85;2.80;;;;;;;;;;4931559;29;20392;-60
2021/05/22 08:06:55;;;;;;;10.82;2.78;;;;;;;;;;4933758;29;20054;-60
2021/05/22 08:09:22;;;;;;;14.07;2.60;;;;;;;;;;4931790;29;20451;-60
2021/05/22 08:11:48;;;;;;;9.27;2.70;;;;;;;;;;4928405;29;20063;-59
2021/05/22 08:14:16;;;;;;;8.38;2.80;;;;;;;;;;4931948;29;20095;-59
2021/05/22 08:16:43;;;;;;;19.15;3.40;;;;;;;;;;4932939;29;20046;-60
2021/05/22 08:19:13;;;;;;;18.58;3.20;;;;;;;;;;4931386;29;20055;-59
2021/05/22 08:21:41;;;;;;;14.07;3.08;;;;;;;;;;4925238;29;20782;-60
2021/05/22 08:24:09;;;;;;;13.73;2.90;;;;;;;;;;4931332;29;20087;-59
2021/05/22 08:26:38;;;;;;;21.10;3.47;;;;;;;;;;4928159;29;20583;-57
2021/05/22 08:29:24;;;;;;;16.67;3.35;;;;;;;;;;4928407;29;20050;-59
2021/05/22 08:31:51;;;;;;;11.13;2.85;;;;;;;;;;4933049;29;20407;-59
2021/05/22 08:34:18;;;;;;;11.70;3.42;;;;;;;;;;4923030;29;20049;-58
2021/05/22 08:36:45;;;;;;;10.68;2.53;;;;;;;;;;4934609;29;20447;-59
2021/05/22 08:39:11;;;;;;;14.70;3.13;;;;;;;;;;4932937;29;20043;-59
2021/05/22 08:41:38;;;;;;;15.32;2.88;;;;;;;;;;4927936;29;20063;-59
2021/05/22 08:44:05;;;;;;;10.30;2.58;;;;;;;;;;4929350;29;20122;-59
2021/05/22 08:46:32;;;;;;;22.30;3.10;;;;;;;;;;4923035;29;20048;-59
2021/05/22 08:48:59;;;;;;;19.30;2.72;;;;;;;;;;4931792;29;20053;-59
2021/05/22 08:51:25;;;;;;;12.00;2.67;;;;;;;;;;4923732;29;20103;-59
2021/05/22 08:53:54;;;;;;;13.88;2.83;;;;;;;;;;4922599;29;20113;-59
2021/05/22 08:56:21;;;;;;;14.65;2.78;;;;;;;;;;4928410;29;20279;-59
2021/05/22 08:58:48;;;;;;;13.40;2.90;;;;;;;;;;4923025;29;20419;-59
2021/05/22 09:01:15;;;;;;;12.13;2.70;;;;;;;;;;4930388;29;20394;-60
2021/05/22 09:03:46;;;;;;;16.45;3.13;;;;;;;;;;4926981;29;20071;-59
2021/05/22 09:06:12;;;;;;;15.75;3.38;;;;;;;;;;4928061;29;20764;-59
2021/05/22 09:08:39;;;;;;;13.93;2.67;;;;;;;;;;4922151;29;20051;-59
2021/05/22 09:11:07;;;;;;;9.32;3.15;;;;;;;;;;4927930;29;20351;-59
2021/05/22 09:13:34;;;;;;;15.73;3.92;;;;;;;;;;4915682;29;20039;-59
2021/05/22 09:16:04;;;;;;;15.38;3.95;;;;;;;;;;4928015;29;20113;-58
2021/05/22 09:18:35;;;;;;;11.13;2.38;;;;;;;;;;4922707;29;20051;-58
2021/05/22 09:21:04;;;;;;;10.52;2.42;;;;;;;;;;4932016;29;20052;-59
2021/05/22 09:23:35;;;;;;;11.00;2.70;;;;;;;;;;4925631;29;20047;-59
2021/05/22 09:26:12;;;;;;;13.70;2.45;;;;;;;;;;4931864;29;20043;-59
2021/05/22 09:28:48;;;;;;;12.18;2.70;;;;;;;;;;4925043;29;20048;-59
2021/05/22 09:31:16;;;;;;;15.18;2.70;;;;;;;;;;4934051;29;20071;-59
2021/05/22 09:33:45;;;;;;;12.98;2.38;;;;;;;;;;4926613;29;20558;-59
2021/05/22 09:36:13;;;;;;;;;;;;;;;;;;4926170;29;20123;-59
2021/05/22 09:38:41;;;;;;;17.58;2.92;;;;;;;;;;4924278;29;19922;-59
2021/05/22 09:41:14;;;;;;;12.20;2.47;;;;;;;;;;4927939;29;20070;-59
2021/05/22 09:43:41;;;;;;;12.52;2.85;;;;;;;;;;4930927;29;20043;-59
2021/05/22 09:46:09;;;;;;;18.97;3.00;;;;;;;;;;4930480;29;20074;-60
2021/05/22 09:48:36;;;;;;;20.83;3.17;;;;;;;;;;4925322;29;20385;-59
2021/05/22 09:51:04;;;;;;;23.05;3.88;;;;;;;;;;4925961;29;20507;-59
2021/05/22 09:53:32;;;;;;;13.45;2.80;;;;;;;;;;4925269;29;20494;-59
2021/05/22 09:56:09;;;;;;;11.43;3.20;;;;;;;;;;4924670;29;20051;-59
2021/05/22 09:58:38;;;;;;;18.10;2.85;;;;;;;;;;4925602;29;20108;-60
2021/05/22 10:01:04;;;;;;;;;;;;;;;;;;4929480;29;20044;-60
2021/05/22 10:03:31;;;;;;;20.73;2.78;;;;;;;;;;4920456;29;20473;-59
2021/05/22 10:05:57;;;;;;;13.97;2.57;;;;;;;;;;4928515;29;20040;-59
2021/05/22 10:08:24;;;;;;;22.27;3.03;;;;;;;;;;4921790;29;20051;-59
2021/05/22 10:10:53;;;;;;;10.98;2.60;;;;;;;;;;4930660;29;20426;-59
2021/05/22 10:13:22;;;;;;;17.70;3.42;;;;;;;;;;4924677;29;20076;-59
2021/05/22 10:15:54;;;;;;;13.38;3.00;;;;;;;;;;4929412;29;20403;-59
2021/05/22 10:18:21;;;;;;;15.15;2.90;;;;;;;;;;4929124;29;20048;-60
2021/05/22 10:20:48;;;;;;;18.00;2.47;;;;;;;;;;4925083;29;20119;-59
2021/05/22 10:23:16;;;;;;;12.43;2.83;;;;;;;;;;4927174;29;20107;-60
2021/05/22 10:25:42;;;;;;;;;;;;;;;;;;4930117;29;20318;-60
2021/05/22 10:28:09;;;;;;;12.00;2.35;;;;;;;;;;4933310;29;20364;-60
2021/05/22 10:30:36;;;;;;;16.13;2.60;;;;;;;;;;4925694;29;20055;-60
2021/05/22 10:33:03;;;;;;;;;;;;;;;;;;4931872;29;20396;-60
2021/05/22 10:35:43;;;;;;;10.00;2.20;;;;;;;;;;4923457;29;19926;-60
2021/05/22 10:38:10;;;;;;;10.43;2.25;;;;;;;;;;4931364;29;20047;-60
2021/05/22 10:40:45;;;;;;;10.48;2.72;;;;;;;;;;4914138;29;20480;-60
2021/05/22 10:43:13;;;;;;;15.68;2.60;;;;;;;;;;4931430;29;20051;-60
2021/05/22 10:45:44;;;;;;;8.07;2.38;;;;;;;;;;4911300;29;20067;-60
2021/05/22 10:48:17;;;;;;;16.35;2.42;;;;;;;;;;4927278;29;20484;-60
2021/05/22 10:50:46;;;;;;;8.82;2.25;;;;;;;;;;4926017;29;20631;-60
2021/05/22 10:53:23;;;;;;;10.13;2.17;;;;;;;;;;4927082;29;20057;-60
2021/05/22 10:56:03;;;;;;;13.50;2.45;;;;;;;;;;4928910;28;20122;-60
2021/05/22 10:58:30;;;;;;;13.95;2.25;;;;;;;;;;4924543;29;20055;-60
2021/05/22 11:01:17;;;;;;;8.18;2.17;;;;;;;;;;4924044;29;20420;-60
2021/05/22 11:04:02;;;;;;;7.05;2.50;;;;;;;;;;4926220;29;20506;-60
2021/05/22 11:06:43;;;;;;;7.78;2.17;;;;;;;;;;4925897;29;20256;-60
2021/05/22 11:09:25;;;;;;;13.65;2.35;;;;;;;;;;4930551;29;20071;-60
2021/05/22 11:11:56;;;;;;;8.98;2.50;;;;;;;;;;4920378;29;20048;-60
2021/05/22 11:14:47;;;;;;;13.30;2.50;;;;;;;;;;4923776;29;20078;-60
2021/05/22 11:17:21;;;;;;;9.35;2.00;;;;;;;;;;4923856;29;20039;-60
2021/05/22 11:20:01;;;;;;;13.13;2.30;;;;;;;;;;4922822;29;20658;-60
2021/05/22 11:22:29;;;;;;;7.85;2.05;;;;;;;;;;4932152;29;20550;-60
2021/05/22 11:24:59;;;;;;;12.18;2.90;;;;;;;;;;4922537;29;20032;-60
2021/05/22 11:27:48;;;;;;;13.13;2.60;;;;;;;;;;4929759;29;20572;-60
2021/05/22 11:30:16;;;;;;;10.75;2.47;;;;;;;;;;4928836;29;20593;-60
2021/05/22 11:32:59;;;;;;;8.07;2.08;;;;;;;;;;4927319;29;20044;-60
2021/05/22 11:35:26;;;;;;;7.85;1.95;;;;;;;;;;4928809;29;20044;-60
2021/05/22 11:37:54;;;;;;;12.27;2.70;;;;;;;;;;4928599;29;20126;-60
2021/05/22 11:40:35;;;;;;;15.77;2.58;;;;;;;;;;4933423;29;20051;-60
2021/05/22 11:43:12;;;;;;;14.60;2.45;;;;;;;;;;4928150;29;20051;-60
2021/05/22 11:45:40;;;;;;;10.52;2.35;;;;;;;;;;4932569;29;20633;-60
2021/05/22 11:48:07;;;;;;;;;;;;;;;;;;4930510;29;20044;-60
2021/05/22 11:50:33;;;;;;;7.53;2.22;;;;;;;;;;4931218;29;19923;-60
2021/05/22 11:53:11;;;;;;;8.93;2.40;;;;;;;;;;4926511;29;20050;-60
2021/05/22 11:55:39;;;;;;;13.43;2.25;;;;;;;;;;4930886;29;20066;-60
2021/05/22 11:58:06;;;;;;;8.73;2.10;;;;;;;;;;4930393;29;20066;-60
2021/05/22 12:00:34;;;;;;;11.80;2.88;;;;;;;;;;4925569;29;20135;-60
2021/05/22 12:03:01;;;;;;;7.22;2.05;;;;;;;;;;4927429;29;20086;-60
2021/05/22 12:05:38;;;;;;;16.55;2.53;;;;;;;;;;4924449;29;20069;-60
2021/05/22 12:08:13;;;;;;;9.90;2.50;;;;;;;;;;4929125;29;20055;-60
2021/05/22 12:10:39;;;;;;;10.35;2.40;;;;;;;;;;4927255;29;20502;-60
2021/05/22 12:13:07;;;;;;;9.80;2.03;;;;;;;;;;4925033;29;20698;-60
2021/05/22 12:15:34;;;;;;;15.53;3.20;;;;;;;;;;4929079;29;20575;-60
2021/05/22 12:18:01;;;;;;;8.43;2.20;;;;;;;;;;4927611;29;20043;-60
2021/05/22 12:20:28;;;;;;;13.07;2.03;;;;;;;;;;4925281;29;20040;-60
2021/05/22 12:22:55;;;;;;;8.70;1.77;;;;;;;;;;4925761;29;20044;-60
2021/05/22 12:25:22;;;;;;;7.88;1.95;;;;;;;;;;4928029;29;20059;-60
2021/05/22 12:27:49;;;;;;;12.13;1.92;;;;;;;;;;4925181;29;20054;-60
2021/05/22 12:30:16;;;;;;;8.10;1.95;;;;;;;;;;4924443;29;20051;-60
2021/05/22 12:32:43;;;;;;;8.00;2.33;;;;;;;;;;4920527;29;20054;-60
2021/05/22 12:35:10;;;;;;;8.38;1.85;;;;;;;;;;4926093;29;20299;-60
2021/05/22 12:37:37;;;;;;;11.10;1.95;;;;;;;;;;4922953;29;20094;-60
2021/05/22 12:40:08;;;;;;;11.70;2.10;;;;;;;;;;4925777;29;20110;-60
2021/05/22 12:42:39;;;;;;;11.00;2.20;;;;;;;;;;4924795;29;20071;-59
2021/05/22 12:45:16;;;;;;;5.68;1.58;;;;;;;;;;4928615;29;20047;-60
2021/05/22 12:47:45;;;;;;;9.60;2.25;;;;;;;;;;4925844;29;20040;-60
2021/05/22 12:50:12;;;;;;;8.55;2.20;;;;;;;;;;4927285;29;20051;-60
2021/05/22 12:52:39;;;;;;;;;;;;;;;;;;4925980;29;20044;-59
2021/05/22 12:55:06;;;;;;;11.52;2.15;;;;;;;;;;4921303;29;20461;-60
2021/05/22 12:57:36;;;;;;;8.63;1.90;;;;;;;;;;4927652;29;20035;-60
2021/05/22 13:00:02;;;;;;;11.30;2.55;;;;;;;;;;4926794;29;20051;-59
2021/05/22 13:02:34;;;;;;;7.32;2.05;;;;;;;;;;4926222;29;20123;-60
2021/05/22 13:05:04;;;;;;;10.00;2.25;;;;;;;;;;4923903;29;20039;-60
2021/05/22 13:07:45;;;;;;;8.77;2.28;;;;;;;;;;4923906;29;20054;-60
2021/05/22 13:10:13;;;;;;;12.60;2.38;;;;;;;;;;4921547;29;20043;-60
2021/05/22 13:12:52;;;;;;;12.50;2.20;;;;;;;;;;4924116;29;20036;-60
2021/05/22 13:15:18;;;;;;;12.93;2.83;;;;;;;;;;4923633;29;20647;-59
2021/05/22 13:18:06;;;;;;;8.00;2.22;;;;;;;;;;4925998;29;20301;-58
2021/05/22 13:20:34;;;;;;;9.10;2.10;;;;;;;;;;4931645;29;20044;-59
2021/05/22 13:23:16;;;;;;;12.80;2.08;;;;;;;;;;4922288;29;20043;-59
2021/05/22 13:25:44;;;;;;;10.77;1.95;;;;;;;;;;4920983;29;20058;-60
2021/05/22 13:28:13;;;;;;;4.70;1.52;;;;;;;;;;4922739;29;20127;-60
2021/05/22 13:30:44;;;;;;;7.47;2.10;;;;;;;;;;4926842;29;20515;-59
2021/05/22 13:33:12;;;;;;;7.32;2.03;;;;;;;;;;4926606;29;20054;-59
2021/05/22 13:35:39;;;;;;;5.40;1.88;;;;;;;;;;4924217;29;20139;-59
2021/05/22 13:38:06;;;;;;;9.65;2.30;;;;;;;;;;4927034;29;20095;-59
2021/05/22 13:40:34;;;;;;;7.32;1.85;;;;;;;;;;4922752;29;20040;-59
2021/05/22 13:43:03;;;;;;;6.38;2.13;;;;;;;;;;4925230;29;20066;-59
2021/05/22 13:45:31;;;;;;;7.93;2.05;;;;;;;;;;4924538;29;20048;-59
2021/05/22 13:47:58;;;;;;;7.63;2.10;;;;;;;;;;4928551;29;20043;-59
2021/05/22 13:50:27;;;;;;;8.25;2.13;;;;;;;;;;4925531;29;20040;-59
2021/05/22 13:52:53;;;;;;;7.50;1.90;;;;;;;;;;4925543;29;20537;-59
2021/05/22 13:55:20;;;;;;;13.05;2.38;;;;;;;;;;4920515;29;20625;-59
2021/05/22 13:57:48;;;;;;;9.95;2.10;;;;;;;;;;4924953;29;20127;-59
2021/05/22 14:00:15;;;;;;;6.80;2.03;;;;;;;;;;4924578;29;20052;-59
2021/05/22 14:02:43;;;;;;;7.68;1.67;;;;;;;;;;4924117;29;20137;-58
2021/05/22 14:05:10;;;;;;;5.28;1.77;;;;;;;;;;4922935;29;20131;-59
2021/05/22 14:07:37;;;;;;;7.93;2.05;;;;;;;;;;4909641;29;20061;-59
2021/05/22 14:10:04;;;;;;;10.20;2.10;;;;;;;;;;4927148;29;20062;-58
2021/05/22 14:12:31;;;;;;;8.60;1.67;;;;;;;;;;4920813;29;20358;-59
2021/05/22 14:14:58;;;;;;;8.85;1.95;;;;;;;;;;4925035;29;20044;-59
2021/05/22 14:17:25;;;;;;;6.40;1.63;;;;;;;;;;4919804;29;20047;-59
2021/05/22 14:19:52;;;;;;;6.73;2.03;;;;;;;;;;4924433;29;20067;-58
2021/05/22 14:22:19;;;;;;;11.77;2.03;;;;;;;;;;4922161;29;20048;-59
2021/05/22 14:24:47;;;;;;;8.05;2.00;;;;;;;;;;4928369;29;20052;-59
2021/05/22 14:27:13;;;;;;;6.60;1.93;;;;;;;;;;4909146;29;20054;-59
2021/05/22 14:29:40;;;;;;;2.40;1.23;;;;;;;;;;4926923;29;20364;-59
2021/05/22 14:32:07;;;;;;;6.47;1.80;;;;;;;;;;4921822;29;20287;-59
2021/05/22 14:34:36;;;;;;;7.32;1.77;;;;;;;;;;4931225;29;20051;-59
2021/05/22 14:37:02;;;;;;;7.88;1.65;;;;;;;;;;4925519;29;20060;-58
2021/05/22 14:39:29;;;;;;;9.70;1.92;;;;;;;;;;4920077;29;20127;-59
2021/05/22 14:41:56;;;;;;;;;;;;;;;;;;4926207;29;20058;-58
2021/05/22 14:44:23;;;;;;;7.78;1.70;;;;;;;;;;4923271;29;19937;-59
2021/05/22 14:46:49;;;;;;;5.45;1.80;;;;;;;;;;4927223;29;20044;-58
2021/05/22 14:49:16;;;;;;;4.60;1.75;;;;;;;;;;4923261;29;20043;-59